createdAt,value
2023-04-16T00:00:49.882Z,90.81
2023-04-16T00:03:16.772Z,91.03
2023-04-16T00:05:43.229Z,90.72
2023-04-16T00:08:09.581Z,90.87
2023-04-16T00:10:35.946Z,91.11
2023-04-16T00:13:02.411Z,90.98
2023-04-16T00:15:28.734Z,91.14
2023-04-16T00:17:55.128Z,91.31
2023-04-16T00:20:21.496Z,91.32
2023-04-16T00:22:47.854Z,91.38
2023-04-16T00:25:14.606Z,91.22
2023-04-16T00:27:41.003Z,91.37
2023-04-16T00:30:07.842Z,91.51
2023-04-16T00:32:34.349Z,91.47
2023-04-16T00:35:00.658Z,91.68
2023-04-16T00:37:27.034Z,91.66
2023-04-16T00:39:53.382Z,91.50
2023-04-16T00:42:20.048Z,91.51
2023-04-16T00:44:46.440Z,91.64
2023-04-16T00:47:12.867Z,91.92
2023-04-16T00:49:39.395Z,92.21
2023-04-16T00:52:06.227Z,91.69
2023-04-16T00:54:32.983Z,91.99
2023-04-16T00:56:59.984Z,91.93
2023-04-16T00:59:27.517Z,92.27
2023-04-16T01:01:53.950Z,91.92
2023-04-16T01:04:21.158Z,91.91
2023-04-16T01:06:47.625Z,91.98
2023-04-16T01:09:13.965Z,91.92
2023-04-16T01:11:40.307Z,92.15
2023-04-16T01:14:06.757Z,92.37
2023-04-16T01:16:33.143Z,92.39
2023-04-16T01:18:59.533Z,92.49
2023-04-16T01:21:26.425Z,92.66
2023-04-16T01:23:52.802Z,92.48
2023-04-16T01:26:19.102Z,92.65
2023-04-16T01:28:45.576Z,92.50
2023-04-16T01:31:11.974Z,92.60
2023-04-16T01:33:38.321Z,92.72
2023-04-16T01:36:04.807Z,92.73
2023-04-16T01:38:31.191Z,92.66
2023-04-16T01:40:58.003Z,92.53
2023-04-16T01:43:24.323Z,92.62
2023-04-16T01:45:50.914Z,92.50
2023-04-16T01:48:17.259Z,92.52
2023-04-16T01:50:43.608Z,92.62
2023-04-16T01:53:10.202Z,92.58
2023-04-16T01:55:36.510Z,92.39
2023-04-16T01:58:02.919Z,92.53
2023-04-16T02:00:29.350Z,92.48
2023-04-16T02:02:55.940Z,92.38
2023-04-16T02:05:22.362Z,92.61
2023-04-16T02:07:48.742Z,92.71
2023-04-16T02:10:15.198Z,92.57
2023-04-16T02:12:41.561Z,92.62
2023-04-16T02:15:08.340Z,92.56
2023-04-16T02:17:34.737Z,92.53
2023-04-16T02:20:03.185Z,92.29
2023-04-16T02:22:29.607Z,92.39
2023-04-16T02:24:55.916Z,92.40
2023-04-16T02:27:22.227Z,92.41
2023-04-16T02:29:48.692Z,92.43
2023-04-16T02:32:15.067Z,92.38
2023-04-16T02:34:42.532Z,92.37
2023-04-16T02:37:09.366Z,92.46
2023-04-16T02:39:35.705Z,92.31
2023-04-16T02:42:02.635Z,92.39
2023-04-16T02:44:29.374Z,92.42
2023-04-16T02:46:55.782Z,92.28
2023-04-16T02:49:22.116Z,91.92
2023-04-16T02:51:48.445Z,91.82
2023-04-16T02:54:14.756Z,91.99
2023-04-16T02:56:41.063Z,92.00
2023-04-16T02:59:07.552Z,92.13
2023-04-16T03:01:34.200Z,92.17
2023-04-16T03:04:00.550Z,92.05
2023-04-16T03:06:27.022Z,92.05
2023-04-16T03:08:53.336Z,91.97
2023-04-16T03:11:20.287Z,92.11
2023-04-16T03:13:46.773Z,91.99
2023-04-16T03:16:13.160Z,92.17
2023-04-16T03:18:39.486Z,92.08
2023-04-16T03:21:06.187Z,92.14
2023-04-16T03:23:32.521Z,92.37
2023-04-16T03:25:58.876Z,92.32
2023-04-16T03:28:26.134Z,92.01
2023-04-16T03:30:53.521Z,92.15
2023-04-16T03:33:20.592Z,92.01
2023-04-16T03:35:46.974Z,92.15
2023-04-16T03:38:13.326Z,92.20
2023-04-16T03:40:39.652Z,92.17
2023-04-16T03:43:06.257Z,92.14
2023-04-16T03:45:32.565Z,92.29
2023-04-16T03:47:59.053Z,92.39
2023-04-16T03:50:25.704Z,92.51
2023-04-16T03:52:52.030Z,92.15
2023-04-16T03:55:18.335Z,92.05
2023-04-16T03:57:44.669Z,91.99
2023-04-16T04:00:11.653Z,92.04
2023-04-16T04:02:38.053Z,92.25
2023-04-16T04:05:04.963Z,92.31
2023-04-16T04:07:31.371Z,92.01
2023-04-16T04:09:57.686Z,91.97
2023-04-16T04:12:24.019Z,91.96
2023-04-16T04:14:50.709Z,92.33
2023-04-16T04:17:17.032Z,92.31
2023-04-16T04:19:54.247Z,92.32
2023-04-16T04:22:27.256Z,92.19
2023-04-16T04:24:53.589Z,92.27
2023-04-16T04:27:19.953Z,92.27
2023-04-16T04:29:46.586Z,92.29
2023-04-16T04:32:12.968Z,92.17
2023-04-16T04:34:39.301Z,92.35
2023-04-16T04:37:05.647Z,92.66
2023-04-16T04:39:31.995Z,92.36
2023-04-16T04:41:58.402Z,92.41
2023-04-16T04:44:24.709Z,92.61
2023-04-16T04:46:51.074Z,92.63
2023-04-16T04:49:17.479Z,92.46
2023-04-16T04:51:43.844Z,92.64
2023-04-16T04:54:10.212Z,92.51
2023-04-16T04:56:36.546Z,92.26
2023-04-16T04:59:02.866Z,92.49
2023-04-16T05:01:29.279Z,92.66
2023-04-16T05:03:55.805Z,92.64
2023-04-16T05:06:22.170Z,92.47
2023-04-16T05:08:48.552Z,92.61
2023-04-16T05:11:14.973Z,92.73
2023-04-16T05:13:41.273Z,92.66
2023-04-16T05:16:07.729Z,92.75
2023-04-16T05:18:34.098Z,92.67
2023-04-16T05:21:00.477Z,92.47
2023-04-16T05:23:26.823Z,92.62
2023-04-16T05:25:53.145Z,92.55
2023-04-16T05:28:19.462Z,92.69
2023-04-16T05:30:46.040Z,92.74
2023-04-16T05:33:12.396Z,92.66
2023-04-16T05:35:38.721Z,92.71
2023-04-16T05:38:05.179Z,92.62
2023-04-16T05:40:32.097Z,92.87
2023-04-16T05:42:58.397Z,92.74
2023-04-16T05:45:26.666Z,92.75
2023-04-16T05:47:54.216Z,92.74
2023-04-16T05:50:20.613Z,92.70
2023-04-16T05:52:46.968Z,92.37
2023-04-16T05:55:13.289Z,92.68
2023-04-16T05:57:39.657Z,92.47
2023-04-16T06:00:06.836Z,92.70
2023-04-16T06:02:33.637Z,92.62
2023-04-16T06:05:00.283Z,92.66
2023-04-16T06:07:26.609Z,92.57
2023-04-16T06:09:52.948Z,92.78
2023-04-16T06:12:19.270Z,92.70
2023-04-16T06:14:45.610Z,92.75
2023-04-16T06:17:12.159Z,92.73
2023-04-16T06:19:38.488Z,92.71
2023-04-16T06:22:06.395Z,92.48
2023-04-16T06:24:32.933Z,92.46
2023-04-16T06:26:59.242Z,92.59
2023-04-16T06:29:33.671Z,92.79
2023-04-16T06:32:07.771Z,92.63
2023-04-16T06:34:34.134Z,92.50
2023-04-16T06:37:01.177Z,92.79
2023-04-16T06:39:27.498Z,92.66
2023-04-16T06:41:53.888Z,92.62
2023-04-16T06:44:20.234Z,92.52
2023-04-16T06:46:46.552Z,92.71
2023-04-16T06:49:12.939Z,92.61
2023-04-16T06:51:39.290Z,92.38
2023-04-16T06:54:06.111Z,92.28
2023-04-16T06:56:32.485Z,92.42
2023-04-16T06:59:00.831Z,92.30
2023-04-16T07:01:28.000Z,92.36
2023-04-16T07:03:54.778Z,92.04
2023-04-16T07:06:21.249Z,92.13
2023-04-16T07:08:47.615Z,92.07
2023-04-16T07:11:14.135Z,91.78
2023-04-16T07:13:40.864Z,91.87
2023-04-16T07:16:07.457Z,91.82
2023-04-16T07:18:33.821Z,92.11
2023-04-16T07:21:00.352Z,92.10
2023-04-16T07:23:26.665Z,91.79
2023-04-16T07:25:53.025Z,92.01
2023-04-16T07:28:20.168Z,91.84
2023-04-16T07:30:46.527Z,91.82
2023-04-16T07:33:12.852Z,91.90
2023-04-16T07:35:39.204Z,91.78
2023-04-16T07:38:05.996Z,91.95
2023-04-16T07:40:33.023Z,91.94
2023-04-16T07:42:59.376Z,91.85
2023-04-16T07:45:25.698Z,91.80
2023-04-16T07:47:52.116Z,91.77
2023-04-16T07:50:19.408Z,91.63
2023-04-16T07:52:47.218Z,91.47
2023-04-16T07:55:13.581Z,91.58
2023-04-16T07:57:41.020Z,91.44
2023-04-16T08:00:08.376Z,91.45
2023-04-16T08:02:34.948Z,91.50
2023-04-16T08:05:01.508Z,91.27
2023-04-16T08:07:27.900Z,91.35
2023-04-16T08:09:54.544Z,91.32
2023-04-16T08:12:21.287Z,91.16
2023-04-16T08:14:48.475Z,90.90
2023-04-16T08:17:15.516Z,90.86
2023-04-16T08:19:42.744Z,90.91
2023-04-16T08:22:09.270Z,90.56
2023-04-16T08:24:35.718Z,90.32
2023-04-16T08:27:15.113Z,90.04
2023-04-16T08:29:44.607Z,90.12
2023-04-16T08:32:11.073Z,90.00
2023-04-16T08:34:37.618Z,89.96
2023-04-16T08:37:03.991Z,89.86
2023-04-16T08:39:30.442Z,89.83
2023-04-16T08:41:57.966Z,89.35
2023-04-16T08:44:27.644Z,89.39
2023-04-16T08:46:59.060Z,89.21
2023-04-16T08:49:26.966Z,89.43
2023-04-16T08:51:55.102Z,89.32
2023-04-16T08:54:56.875Z,88.96
2023-04-16T08:57:26.765Z,88.93
2023-04-16T08:59:55.091Z,89.21
2023-04-16T09:02:21.839Z,88.60
2023-04-16T09:04:50.561Z,88.31
2023-04-16T09:07:19.451Z,88.79
2023-04-16T09:09:49.666Z,88.67
2023-04-16T09:12:17.348Z,88.56
2023-04-16T09:14:46.934Z,88.32
2023-04-16T09:17:14.033Z,87.59
2023-04-16T09:19:40.437Z,87.52
2023-04-16T09:22:06.745Z,87.25
2023-04-16T09:24:34.324Z,87.51
2023-04-16T09:27:00.949Z,87.10
2023-04-16T09:29:38.246Z,87.10
2023-04-16T09:32:06.906Z,86.93
2023-04-16T09:34:34.412Z,86.97
2023-04-16T09:37:17.535Z,86.69
2023-04-16T09:39:44.960Z,86.76
2023-04-16T09:42:12.152Z,86.55
2023-04-16T09:44:38.914Z,86.36
2023-04-16T09:47:07.727Z,86.49
2023-04-16T09:49:43.643Z,86.42
2023-04-16T09:52:17.853Z,86.63
2023-04-16T09:54:51.638Z,86.70
2023-04-16T09:57:22.977Z,86.69
2023-04-16T09:59:53.987Z,86.65
2023-04-16T10:02:20.874Z,86.47
2023-04-16T10:04:51.663Z,86.21
2023-04-16T10:07:18.985Z,86.39
2023-04-16T10:09:48.354Z,86.31
2023-04-16T10:12:15.947Z,86.13
2023-04-16T10:14:42.646Z,86.07
2023-04-16T10:17:09.836Z,86.30
2023-04-16T10:19:36.818Z,86.59
2023-04-16T10:22:03.851Z,86.41
2023-04-16T10:24:31.893Z,85.77
2023-04-16T10:26:59.513Z,86.18
2023-04-16T10:29:27.842Z,86.15
2023-04-16T10:31:55.994Z,85.77
2023-04-16T10:34:24.210Z,85.66
2023-04-16T10:36:52.888Z,85.59
2023-04-16T10:39:22.426Z,85.81
2023-04-16T10:41:49.414Z,85.54
2023-04-16T10:44:17.760Z,86.08
2023-04-16T10:46:51.226Z,85.80
2023-04-16T10:49:24.392Z,85.70
2023-04-16T10:51:58.991Z,85.95
2023-04-16T10:54:32.082Z,85.62
2023-04-16T10:57:04.260Z,85.82
2023-04-16T10:59:33.357Z,85.62
2023-04-16T11:02:01.794Z,85.88
2023-04-16T11:04:34.032Z,85.42
2023-04-16T11:07:02.914Z,85.13
2023-04-16T11:10:01.951Z,84.69
2023-04-16T11:12:47.155Z,85.30
2023-04-16T11:15:19.495Z,84.91
2023-04-16T11:17:47.843Z,84.55
2023-04-16T11:20:21.850Z,84.77
2023-04-16T11:22:49.453Z,85.19
2023-04-16T11:25:27.148Z,85.43
2023-04-16T11:27:54.543Z,84.47
2023-04-16T11:30:33.761Z,84.57
2023-04-16T11:33:04.101Z,83.97
2023-04-16T11:35:30.529Z,83.93
2023-04-16T11:37:58.026Z,84.30
2023-04-16T11:40:25.261Z,84.18
2023-04-16T11:42:51.605Z,84.86
2023-04-16T11:45:21.031Z,84.88
2023-04-16T11:47:52.171Z,84.82
2023-04-16T11:50:18.770Z,84.80
2023-04-16T11:52:45.244Z,84.74
2023-04-16T11:55:11.952Z,84.68
2023-04-16T11:57:38.328Z,84.85
2023-04-16T12:00:13.956Z,84.71
2023-04-16T12:02:45.944Z,85.13
2023-04-16T12:05:31.819Z,85.08
2023-04-16T12:07:59.640Z,84.58
2023-04-16T12:10:27.023Z,84.31
2023-04-16T12:12:53.426Z,84.14
2023-04-16T12:15:19.795Z,84.68
2023-04-16T12:17:46.174Z,84.26
2023-04-16T12:20:15.308Z,84.53
2023-04-16T12:22:47.293Z,84.23
2023-04-16T12:25:15.788Z,83.88
2023-04-16T12:27:54.050Z,83.64
2023-04-16T12:30:22.829Z,83.93
2023-04-16T12:32:51.530Z,83.77
2023-04-16T12:35:31.684Z,84.26
2023-04-16T12:37:58.280Z,83.55
2023-04-16T12:40:24.675Z,83.62
2023-04-16T12:42:51.244Z,83.99
2023-04-16T12:45:17.602Z,83.92
2023-04-16T12:47:43.978Z,84.12
2023-04-16T12:50:10.812Z,83.60
2023-04-16T12:52:37.276Z,83.59
2023-04-16T12:55:03.763Z,83.72
2023-04-16T12:57:30.332Z,83.72
2023-04-16T12:59:57.534Z,83.84
2023-04-16T13:02:25.302Z,83.46
2023-04-16T13:04:52.691Z,83.48
2023-04-16T13:07:19.710Z,83.52
2023-04-16T13:09:46.573Z,83.77
2023-04-16T13:14:53.702Z,83.12
2023-04-16T13:17:20.094Z,83.29
2023-04-16T13:19:46.590Z,83.23
2023-04-16T13:22:12.988Z,83.34
2023-04-16T13:24:39.489Z,83.36
2023-04-16T13:27:07.862Z,83.01
2023-04-16T13:29:36.590Z,82.67
2023-04-16T13:32:03.950Z,82.68
2023-04-16T13:34:30.422Z,82.73
2023-04-16T13:36:56.731Z,82.36
2023-04-16T13:39:23.077Z,82.55
2023-04-16T13:41:50.290Z,82.78
2023-04-16T13:44:16.611Z,83.17
2023-04-16T13:46:47.784Z,82.17
2023-04-16T13:49:14.692Z,82.53
2023-04-16T13:51:44.583Z,82.90
2023-04-16T13:54:10.957Z,82.67
2023-04-16T13:56:37.426Z,82.73
2023-04-16T13:59:03.810Z,82.42
2023-04-16T14:01:30.220Z,81.99
2023-04-16T14:03:56.622Z,81.96
2023-04-16T14:06:22.958Z,81.61
2023-04-16T14:08:49.309Z,81.72
2023-04-16T14:11:15.750Z,81.36
2023-04-16T14:13:42.214Z,81.40
2023-04-16T14:16:08.630Z,82.26
2023-04-16T14:18:35.842Z,82.06
2023-04-16T14:21:02.181Z,80.63
2023-04-16T14:23:28.604Z,81.57
2023-04-16T14:25:55.266Z,81.27
2023-04-16T14:28:21.633Z,81.01
2023-04-16T14:30:47.975Z,80.07
2023-04-16T14:33:14.293Z,80.12
2023-04-16T14:35:41.328Z,79.82
2023-04-16T14:38:07.727Z,79.96
2023-04-16T14:40:34.493Z,79.49
2023-04-16T14:43:00.940Z,79.87
2023-04-16T14:45:28.863Z,80.21
2023-04-16T14:47:55.246Z,80.10
2023-04-16T14:50:21.748Z,79.67
2023-04-16T14:52:48.320Z,79.75
2023-04-16T14:55:14.645Z,79.99
2023-04-16T14:57:41.576Z,79.91
2023-04-16T15:00:11.841Z,80.18
2023-04-16T15:02:38.490Z,79.82
2023-04-16T15:05:05.338Z,79.17
2023-04-16T15:07:31.697Z,79.55
2023-04-16T15:09:58.693Z,79.15
2023-04-16T15:12:26.365Z,79.10
2023-04-16T15:14:52.730Z,79.91
2023-04-16T15:17:20.333Z,79.02
2023-04-16T15:19:46.800Z,79.04
2023-04-16T15:22:14.668Z,79.17
2023-04-16T15:24:41.099Z,79.31
2023-04-16T15:27:08.522Z,78.61
2023-04-16T15:29:36.845Z,79.36
2023-04-16T15:32:03.290Z,79.25
2023-04-16T15:34:30.280Z,78.67
2023-04-16T15:36:56.615Z,79.30
2023-04-16T15:39:22.940Z,79.25
2023-04-16T15:42:00.717Z,79.12
2023-04-16T15:44:28.120Z,78.86
2023-04-16T15:46:54.505Z,79.77
2023-04-16T15:49:20.868Z,79.39
2023-04-16T15:51:47.270Z,79.79
2023-04-16T15:54:13.694Z,79.30
2023-04-16T15:56:40.160Z,79.91
2023-04-16T15:59:06.522Z,79.51
2023-04-16T16:01:33.991Z,79.82
2023-04-16T16:04:00.650Z,79.82
2023-04-16T16:06:27.169Z,80.04
2023-04-16T16:08:54.426Z,79.89
2023-04-16T16:11:21.737Z,80.31
2023-04-16T16:13:48.223Z,79.97
2023-04-16T16:16:15.295Z,80.66
2023-04-16T16:18:42.161Z,80.72
2023-04-16T16:21:08.693Z,80.26
2023-04-16T16:23:35.035Z,80.81
2023-04-16T16:26:01.629Z,81.05
2023-04-16T16:28:28.068Z,81.19
2023-04-16T16:30:55.476Z,81.22
2023-04-16T16:33:22.013Z,81.11
2023-04-16T16:35:48.385Z,81.19
2023-04-16T16:38:15.221Z,81.23
2023-04-16T16:40:41.532Z,80.96
2023-04-16T16:43:08.139Z,80.84
2023-04-16T16:45:34.492Z,80.81
2023-04-16T16:48:00.893Z,81.09
2023-04-16T16:50:27.447Z,81.23
2023-04-16T16:52:53.846Z,81.42
2023-04-16T16:55:20.860Z,80.81
2023-04-16T16:57:47.236Z,81.21
2023-04-16T17:00:15.078Z,81.17
2023-04-16T17:02:41.893Z,81.50
2023-04-16T17:05:09.007Z,81.43
2023-04-16T17:07:36.093Z,81.71
2023-04-16T17:10:05.307Z,81.71
2023-04-16T17:12:33.026Z,81.79
2023-04-16T17:14:59.351Z,82.31
2023-04-16T17:17:27.017Z,81.81
2023-04-16T17:19:53.686Z,82.00
2023-04-16T17:22:20.010Z,82.50
2023-04-16T17:24:47.087Z,82.73
2023-04-16T17:27:13.481Z,82.82
2023-04-16T17:29:39.812Z,83.23
2023-04-16T17:32:06.223Z,83.40
2023-04-16T17:34:32.584Z,83.34
2023-04-16T17:36:58.890Z,83.01
2023-04-16T17:39:25.337Z,83.51
2023-04-16T17:41:54.667Z,83.20
2023-04-16T17:44:22.875Z,83.23
2023-04-16T17:46:49.193Z,83.27
2023-04-16T17:49:15.607Z,83.59
2023-04-16T17:51:44.317Z,83.59
2023-04-16T17:54:10.906Z,83.84
2023-04-16T17:56:37.633Z,83.93
2023-04-16T17:59:04.631Z,83.94
2023-04-16T18:01:31.115Z,84.05
2023-04-16T18:03:57.690Z,84.03
2023-04-16T18:06:24.122Z,84.24
2023-04-16T18:08:50.527Z,84.35
2023-04-16T18:11:16.867Z,84.36
2023-04-16T18:13:43.531Z,84.15
2023-04-16T18:16:16.884Z,84.46
2023-04-16T18:18:44.340Z,84.83
2023-04-16T18:21:10.770Z,84.70
2023-04-16T18:23:37.198Z,84.86
2023-04-16T18:26:03.721Z,85.15
2023-04-16T18:28:30.226Z,85.49
2023-04-16T18:30:58.994Z,85.25
2023-04-16T18:33:44.398Z,85.37
2023-04-16T18:36:14.562Z,85.38
2023-04-16T18:38:52.931Z,85.57
2023-04-16T18:41:23.886Z,85.89
2023-04-16T18:43:50.478Z,86.04
2023-04-16T18:46:17.027Z,86.24
2023-04-16T18:48:45.071Z,86.82
2023-04-16T18:51:11.911Z,86.82
2023-04-16T18:53:39.276Z,86.86
2023-04-16T18:56:05.834Z,86.83
2023-04-16T18:58:32.271Z,86.95
2023-04-16T19:00:58.640Z,87.21
2023-04-16T19:03:27.223Z,87.16
2023-04-16T19:05:53.941Z,87.31
2023-04-16T19:08:20.541Z,87.25
2023-04-16T19:10:50.198Z,87.40
2023-04-16T19:13:16.984Z,87.38
2023-04-16T19:15:43.297Z,87.49
2023-04-16T19:18:09.694Z,87.50
2023-04-16T19:20:36.877Z,87.74
2023-04-16T19:23:08.811Z,87.61
2023-04-16T19:25:36.424Z,87.79
2023-04-16T19:28:03.677Z,87.65
2023-04-16T19:30:30.471Z,87.67
2023-04-16T19:32:56.909Z,87.68
2023-04-16T19:35:23.382Z,87.69
2023-04-16T19:37:50.414Z,87.94
2023-04-16T19:40:16.905Z,87.90
2023-04-16T19:42:45.169Z,87.92
2023-04-16T19:45:11.520Z,87.62
2023-04-16T19:47:37.915Z,87.76
2023-04-16T19:50:04.484Z,87.68
2023-04-16T19:52:30.834Z,87.82
2023-04-16T19:54:57.195Z,87.81
2023-04-16T19:57:23.577Z,87.77
2023-04-16T19:59:50.060Z,87.93
2023-04-16T20:02:16.424Z,88.03
2023-04-16T20:04:42.779Z,88.01
2023-04-16T20:07:09.115Z,87.94
2023-04-16T20:09:35.707Z,87.98
2023-04-16T20:12:02.619Z,88.09
2023-04-16T20:14:28.931Z,88.21
2023-04-16T20:16:55.337Z,88.26
2023-04-16T20:19:22.035Z,88.17
2023-04-16T20:21:48.360Z,88.38
2023-04-16T20:24:15.339Z,88.54
2023-04-16T20:26:41.830Z,88.68
2023-04-16T20:29:09.979Z,88.73
2023-04-16T20:31:36.574Z,88.66
2023-04-16T20:34:03.707Z,88.43
2023-04-16T20:36:30.321Z,88.42
2023-04-16T20:38:56.663Z,88.35
2023-04-16T20:41:24.970Z,88.40
2023-04-16T20:43:52.857Z,88.18
2023-04-16T20:46:24.305Z,88.29
2023-04-16T20:48:51.574Z,88.08
2023-04-16T20:51:17.943Z,88.07
2023-04-16T20:53:44.396Z,87.89
2023-04-16T20:56:14.544Z,88.05
2023-04-16T20:58:41.447Z,88.01
2023-04-16T21:01:07.830Z,88.39
2023-04-16T21:03:34.386Z,88.55
2023-04-16T21:06:01.657Z,88.68
2023-04-16T21:08:28.034Z,88.68
2023-04-16T21:10:54.384Z,88.52
2023-04-16T21:13:21.514Z,88.82
2023-04-16T21:15:47.975Z,88.69
2023-04-16T21:18:14.450Z,88.59
2023-04-16T21:20:40.909Z,88.74
2023-04-16T21:23:07.714Z,88.64
2023-04-16T21:25:34.062Z,88.60
2023-04-16T21:28:00.449Z,88.77
2023-04-16T21:30:27.052Z,88.62
2023-04-16T21:32:53.427Z,88.49
2023-04-16T21:35:20.000Z,88.46
2023-04-16T21:37:46.358Z,88.56
2023-04-16T21:40:12.873Z,88.62
2023-04-16T21:42:40.006Z,88.81
2023-04-16T21:45:10.130Z,88.55
2023-04-16T21:47:36.904Z,88.71
2023-04-16T21:50:03.590Z,88.90
2023-04-16T21:52:30.469Z,88.80
2023-04-16T21:54:56.797Z,88.90
2023-04-16T21:57:23.159Z,88.98
2023-04-16T21:59:49.504Z,89.14
2023-04-16T22:02:15.891Z,88.99
2023-04-16T22:04:43.443Z,88.97
2023-04-16T22:07:09.874Z,88.96
2023-04-16T22:09:36.385Z,88.91
2023-04-16T22:12:02.884Z,89.09
2023-04-16T22:14:30.118Z,89.00
2023-04-16T22:16:56.604Z,88.97
2023-04-16T22:19:23.045Z,89.08
2023-04-16T22:21:49.465Z,88.89
2023-04-16T22:24:15.799Z,89.06
2023-04-16T22:26:42.325Z,89.05
2023-04-16T22:29:09.088Z,89.27
2023-04-16T22:31:36.051Z,89.12
2023-04-16T22:34:03.530Z,89.14
2023-04-16T22:36:30.865Z,89.30
2023-04-16T22:38:57.317Z,89.07
2023-04-16T22:41:23.739Z,89.06
2023-04-16T22:43:52.474Z,88.99
2023-04-16T22:46:22.296Z,89.06
2023-04-16T22:48:48.808Z,89.24
2023-04-16T22:51:15.179Z,89.13
2023-04-16T22:53:41.734Z,89.50
2023-04-16T22:56:08.089Z,89.41
2023-04-16T22:58:34.520Z,89.37
2023-04-16T23:01:01.516Z,89.47
2023-04-16T23:03:28.404Z,89.74
2023-04-16T23:05:54.859Z,89.75
2023-04-16T23:08:21.170Z,89.78
2023-04-16T23:10:47.490Z,89.69
2023-04-16T23:13:13.842Z,89.68
2023-04-16T23:15:40.384Z,89.65
2023-04-16T23:18:06.891Z,89.67
2023-04-16T23:20:33.268Z,89.63
2023-04-16T23:22:59.595Z,89.77
2023-04-16T23:25:25.945Z,89.57
2023-04-16T23:27:52.335Z,89.72
2023-04-16T23:30:18.723Z,89.59
2023-04-16T23:32:45.136Z,89.84
2023-04-16T23:35:11.489Z,89.85
2023-04-16T23:37:37.887Z,89.82
2023-04-16T23:40:04.882Z,89.87
2023-04-16T23:42:31.214Z,89.76
2023-04-16T23:44:57.536Z,89.84
2023-04-16T23:47:23.868Z,90.06
2023-04-16T23:49:50.308Z,89.86
2023-04-16T23:52:16.627Z,89.91
2023-04-16T23:54:42.950Z,89.93
2023-04-16T23:57:09.831Z,90.00
2023-04-16T23:59:36.156Z,89.93
